Aviation Digital Data Service (ADDS)

Output produced by METARs form (2219 UTC 22 July 2018)
found at http://bcaws.aviationweather.gov/adds/metars/
 
METAR text: KSQL 222147Z 32008KT 10SM FEW120 26/14 A3006
Conditions at: KSQL (SAN CARLOS AIRPO, CA, US) observed 2147 UTC 22 July 2018
Temperature: 26.0°C (79°F)
Dewpoint: 14.0°C (57°F) [RH = 48%]
Pressure (altimeter): 30.06 inches Hg (1018.0 mb)
Winds: from the NW (320 degrees) at 9 MPH (8 knots; 4.2 m/s)
Visibility: 10 or more miles (16+ km)
Ceiling: at least 12,000 feet AGL
Clouds: few clouds at 12000 feet AGL
Weather: no significant weather observed at this time